Time;durP1;ratioP1;P1;durP2;ratioP2;P2;SDS_P1;SDS_P2;PMS_P1;PMS_P2;Temp;Humidity;BMP_temperature;BMP_pressure;BME280_temperature;BME280_humidity;BME280_pressure;Samples;Min_cycle;Max_cycle;Signal;HPM_P1;HPM_P2
2022/12/29 00:01:22;;;;;;;54.60;25.50;;;;;;;;;;5017784;28;20112;-75
2022/12/29 00:03:48;;;;;;;57.05;24.80;;;;;;;;;;5035813;28;20021;-78
2022/12/29 00:06:13;;;;;;;53.08;24.23;;;;;;;;;;5017764;28;20049;-78
2022/12/29 00:08:39;;;;;;;50.70;23.52;;;;;;;;;;5035314;28;20084;-78
2022/12/29 00:11:08;;;;;;;65.85;25.60;;;;;;;;;;5035106;28;20026;-78
2022/12/29 00:16:18;;;;;;;51.30;24.20;;;;;;;;;;5034658;28;20049;-78
2022/12/29 00:18:44;;;;;;;54.25;23.55;;;;;;;;;;5034864;28;20454;-78
2022/12/29 00:35:10;;;;;;;68.32;29.73;;;;;;;;;;5055034;28;20091;-78
2022/12/29 00:45:52;;;;;;;81.60;30.65;;;;;;;;;;5054638;28;20393;-78
2022/12/29 00:51:02;;;;;;;70.57;29.77;;;;;;;;;;5054281;28;20420;-78
2022/12/29 00:53:27;;;;;;;67.03;29.35;;;;;;;;;;5054621;28;20037;-78
2022/12/29 00:55:53;;;;;;;70.82;29.15;;;;;;;;;;5054424;28;20017;-78
2022/12/29 00:58:18;;;;;;;75.38;30.13;;;;;;;;;;5054626;28;20032;-78
2022/12/29 01:00:44;;;;;;;71.38;30.08;;;;;;;;;;5054855;28;20084;-78
2022/12/29 01:03:09;;;;;;;64.97;27.27;;;;;;;;;;5054155;28;20457;-78
2022/12/29 01:05:37;;;;;;;66.38;27.40;;;;;;;;;;5054677;28;20036;-78
2022/12/29 01:08:03;;;;;;;58.55;25.83;;;;;;;;;;5054456;28;20114;-78
2022/12/29 01:10:28;;;;;;;65.65;27.98;;;;;;;;;;5054695;28;20068;-78
2022/12/29 01:12:54;;;;;;;69.32;29.33;;;;;;;;;;5053214;28;20130;-78
2022/12/29 01:15:19;;;;;;;67.82;28.13;;;;;;;;;;5054516;28;20025;-78
2022/12/29 01:17:45;;;;;;;70.50;28.73;;;;;;;;;;5036033;28;20025;-79
2022/12/29 01:20:10;;;;;;;65.57;27.75;;;;;;;;;;5054385;28;20031;-78
2022/12/29 01:22:36;;;;;;;60.25;27.58;;;;;;;;;;5054415;28;20520;-79
2022/12/29 01:25:02;;;;;;;57.58;26.30;;;;;;;;;;5054253;28;20508;-78
2022/12/29 01:27:27;;;;;;;57.35;24.58;;;;;;;;;;5053208;28;20426;-79
2022/12/29 01:29:53;;;;;;;52.28;23.88;;;;;;;;;;5053878;28;20045;-78
2022/12/29 01:32:18;;;;;;;58.08;24.92;;;;;;;;;;5053883;28;20037;-78
2022/12/29 01:34:43;;;;;;;57.25;24.75;;;;;;;;;;5054167;28;20041;-79
2022/12/29 01:37:09;;;;;;;55.05;25.30;;;;;;;;;;5036002;28;20377;-79
2022/12/29 01:39:34;;;;;;;52.17;23.75;;;;;;;;;;5036635;28;20025;-78
2022/12/29 01:42:00;;;;;;;63.65;24.88;;;;;;;;;;5054392;28;20115;-78
2022/12/29 01:44:44;;;;;;;64.70;26.55;;;;;;;;;;5036286;28;20033;-78
2022/12/29 01:47:09;;;;;;;53.80;23.75;;;;;;;;;;5054470;28;20080;-78
2022/12/29 01:49:35;;;;;;;54.42;23.95;;;;;;;;;;5052854;28;20056;-78
2022/12/29 01:52:05;;;;;;;51.25;22.88;;;;;;;;;;5053829;28;20036;-78
2022/12/29 01:54:35;;;;;;;50.15;22.17;;;;;;;;;;5036600;28;20040;-78
2022/12/29 01:57:03;;;;;;;45.58;21.60;;;;;;;;;;5053855;28;20029;-78
2022/12/29 01:59:31;;;;;;;43.33;19.70;;;;;;;;;;5052426;28;20052;-77
2022/12/29 02:01:56;;;;;;;45.33;20.58;;;;;;;;;;5036285;28;20082;-77
2022/12/29 02:04:23;;;;;;;42.15;19.52;;;;;;;;;;5053818;28;20029;-78
2022/12/29 02:06:54;;;;;;;44.53;19.35;;;;;;;;;;5036005;28;20036;-78
2022/12/29 02:09:20;;;;;;;44.63;19.63;;;;;;;;;;5019790;28;20114;-78
2022/12/29 02:11:45;;;;;;;45.47;20.17;;;;;;;;;;5035614;28;20147;-78
2022/12/29 02:14:11;;;;;;;39.70;19.00;;;;;;;;;;5035533;28;20032;-78
2022/12/29 02:16:58;;;;;;;39.55;18.90;;;;;;;;;;5052159;28;20025;-78
2022/12/29 02:19:48;;;;;;;44.50;19.95;;;;;;;;;;5053283;28;20028;-78
2022/12/29 02:22:55;;;;;;;48.57;20.30;;;;;;;;;;5053701;28;20114;-78
2022/12/29 02:25:40;;;;;;;39.92;19.00;;;;;;;;;;5007054;28;20041;-77
2022/12/29 02:28:38;;;;;;;41.45;19.35;;;;;;;;;;5035557;28;20112;-78
2022/12/29 02:31:06;;;;;;;41.88;18.58;;;;;;;;;;5016282;28;20080;-76
2022/12/29 02:33:44;;;;;;;45.47;19.85;;;;;;;;;;5015723;28;20037;-77
2022/12/29 02:36:27;;;;;;;46.85;19.02;;;;;;;;;;5015549;28;20474;-77
2022/12/29 02:38:55;;;;;;;40.75;18.65;;;;;;;;;;5017564;28;20034;-76
2022/12/29 02:41:30;;;;;;;41.15;19.00;;;;;;;;;;5037283;28;20092;-78
2022/12/29 02:44:16;;;;;;;42.50;18.33;;;;;;;;;;5019048;28;20029;-77
2022/12/29 02:46:45;;;;;;;43.30;19.30;;;;;;;;;;5036979;28;20033;-78
2022/12/29 02:49:39;;;;;;;47.38;19.50;;;;;;;;;;5035991;28;20381;-78
2022/12/29 02:52:07;;;;;;;45.72;18.77;;;;;;;;;;5023481;28;20505;-79
2022/12/29 02:54:41;;;;;;;40.30;18.98;;;;;;;;;;5035733;28;20116;-78
2022/12/29 02:57:28;;;;;;;47.80;19.45;;;;;;;;;;5036808;28;20439;-79
2022/12/29 03:00:07;;;;;;;41.97;18.58;;;;;;;;;;5036984;28;20041;-79
2022/12/29 03:03:00;;;;;;;40.80;18.13;;;;;;;;;;5020973;28;20034;-78
2022/12/29 03:05:53;;;;;;;41.40;19.20;;;;;;;;;;5036761;28;20132;-78
2022/12/29 03:08:52;;;;;;;37.78;17.20;;;;;;;;;;5036688;28;20064;-78
2022/12/29 03:17:26;;;;;;;39.42;17.20;;;;;;;;;;5023325;28;20179;-78
2022/12/29 03:19:52;;;;;;;36.25;16.83;;;;;;;;;;5026552;28;20045;-79
2022/12/29 03:22:31;;;;;;;36.28;16.75;;;;;;;;;;5029445;28;20075;-78
2022/12/29 03:25:12;;;;;;;41.92;16.88;;;;;;;;;;5027437;28;20025;-79
2022/12/29 03:27:52;;;;;;;41.13;18.45;;;;;;;;;;5036218;28;20042;-78
2022/12/29 03:30:18;;;;;;;45.85;19.17;;;;;;;;;;5049842;28;20053;-78
2022/12/29 03:32:52;;;;;;;42.97;19.17;;;;;;;;;;5054730;28;20045;-78
2022/12/29 03:35:20;;;;;;;45.17;20.73;;;;;;;;;;5056119;28;20033;-78
2022/12/29 03:37:52;;;;;;;41.65;18.77;;;;;;;;;;5054817;28;20124;-78
2022/12/29 03:40:18;;;;;;;41.25;18.92;;;;;;;;;;5054655;28;20032;-78
2022/12/29 03:42:44;;;;;;;39.28;18.02;;;;;;;;;;5054376;28;20052;-78
2022/12/29 03:45:10;;;;;;;37.53;17.17;;;;;;;;;;5037821;28;20064;-78
2022/12/29 03:47:36;;;;;;;44.33;19.42;;;;;;;;;;5038219;28;20025;-78
2022/12/29 03:50:01;;;;;;;56.70;23.02;;;;;;;;;;5054996;28;20361;-78
2022/12/29 03:52:26;;;;;;;50.42;22.60;;;;;;;;;;5037952;28;20445;-78
2022/12/29 03:54:52;;;;;;;47.38;21.73;;;;;;;;;;5055667;28;20024;-79
2022/12/29 03:57:17;;;;;;;48.50;21.05;;;;;;;;;;5055646;28;20124;-78
2022/12/29 03:59:43;;;;;;;45.47;21.38;;;;;;;;;;5055939;28;20036;-78
2022/12/29 04:02:08;;;;;;;45.80;21.73;;;;;;;;;;5055213;28;20517;-78
2022/12/29 04:04:34;;;;;;;49.70;22.67;;;;;;;;;;5037775;28;20026;-78
2022/12/29 04:06:59;;;;;;;48.15;22.90;;;;;;;;;;5055372;28;20021;-78
2022/12/29 04:09:24;;;;;;;44.50;21.98;;;;;;;;;;5055291;28;20083;-78
2022/12/29 04:11:50;;;;;;;54.05;23.17;;;;;;;;;;5055444;28;20059;-79
2022/12/29 04:14:16;;;;;;;54.38;23.08;;;;;;;;;;5055738;28;20349;-78
2022/12/29 04:16:41;;;;;;;48.53;22.80;;;;;;;;;;5021155;28;20024;-78
2022/12/29 04:19:07;;;;;;;55.47;24.02;;;;;;;;;;5055101;28;20028;-78
2022/12/29 04:21:32;;;;;;;50.83;23.98;;;;;;;;;;5055612;28;20036;-77
2022/12/29 04:23:58;;;;;;;51.42;24.10;;;;;;;;;;5055237;28;20029;-77
2022/12/29 04:26:23;;;;;;;54.80;25.98;;;;;;;;;;5036949;28;20029;-77
2022/12/29 04:28:49;;;;;;;62.05;28.70;;;;;;;;;;5055019;28;20450;-77
2022/12/29 04:31:14;;;;;;;61.75;26.45;;;;;;;;;;5055062;28;20410;-77
2022/12/29 04:33:39;;;;;;;59.17;25.92;;;;;;;;;;5055106;28;20108;-76
2022/12/29 04:36:05;;;;;;;60.65;27.20;;;;;;;;;;5055045;28;20060;-78
2022/12/29 04:38:30;;;;;;;58.63;26.70;;;;;;;;;;5054930;28;20056;-77
2022/12/29 04:41:00;;;;;;;59.05;26.65;;;;;;;;;;5053490;28;20064;-78
2022/12/29 04:43:26;;;;;;;61.00;28.02;;;;;;;;;;5020971;28;20036;-78
2022/12/29 04:45:51;;;;;;;57.35;26.85;;;;;;;;;;5054849;28;20033;-78
2022/12/29 04:48:17;;;;;;;62.60;27.25;;;;;;;;;;5054862;28;20073;-78
2022/12/29 04:50:42;;;;;;;60.47;27.80;;;;;;;;;;5054675;28;20064;-77
2022/12/29 04:53:08;;;;;;;63.97;28.83;;;;;;;;;;5053380;28;20454;-78
2022/12/29 04:55:33;;;;;;;64.20;29.70;;;;;;;;;;5053403;28;20112;-77
2022/12/29 04:57:59;;;;;;;72.00;32.70;;;;;;;;;;5053159;28;20528;-77
2022/12/29 05:00:24;;;;;;;76.03;35.08;;;;;;;;;;5054494;28;20381;-77
2022/12/29 05:02:49;;;;;;;71.03;32.22;;;;;;;;;;5036621;28;20049;-77
2022/12/29 05:05:15;;;;;;;71.75;30.27;;;;;;;;;;5036865;28;20025;-77
2022/12/29 05:07:40;;;;;;;67.32;30.77;;;;;;;;;;5053115;28;20033;-77
2022/12/29 05:10:06;;;;;;;66.57;29.52;;;;;;;;;;5054630;28;20433;-75
2022/12/29 05:12:32;;;;;;;66.30;29.70;;;;;;;;;;5054675;28;20029;-77
2022/12/29 05:14:58;;;;;;;75.25;29.75;;;;;;;;;;5036626;28;20112;-77
2022/12/29 05:18:13;;;;;;;79.75;34.83;;;;;;;;;;5036056;28;20517;-77
2022/12/29 05:20:38;;;;;;;70.43;30.92;;;;;;;;;;5054219;28;20454;-77
2022/12/29 05:23:04;;;;;;;67.90;31.00;;;;;;;;;;5053952;28;20036;-77
2022/12/29 05:25:29;;;;;;;70.97;32.55;;;;;;;;;;5054165;28;20446;-77
2022/12/29 05:27:55;;;;;;;65.50;31.45;;;;;;;;;;5054402;28;20403;-77
2022/12/29 05:30:20;;;;;;;72.50;31.77;;;;;;;;;;5053988;28;20028;-77
2022/12/29 05:32:45;;;;;;;65.00;30.35;;;;;;;;;;5053840;28;20032;-76
2022/12/29 05:35:11;;;;;;;67.80;29.48;;;;;;;;;;5054015;28;20036;-77
2022/12/29 05:37:36;;;;;;;66.00;30.23;;;;;;;;;;5053774;28;20120;-77
2022/12/29 05:40:02;;;;;;;68.35;31.65;;;;;;;;;;5054336;28;20060;-78
2022/12/29 05:42:28;;;;;;;64.78;28.15;;;;;;;;;;5036238;28;20037;-78
2022/12/29 05:44:53;;;;;;;67.05;28.50;;;;;;;;;;5054060;28;20028;-79
2022/12/29 05:47:19;;;;;;;70.80;29.98;;;;;;;;;;5053821;28;20752;-79
2022/12/29 05:49:44;;;;;;;70.40;31.50;;;;;;;;;;5035929;28;20027;-79
2022/12/29 05:52:41;;;;;;;70.43;31.20;;;;;;;;;;5035753;28;20052;-78
2022/12/29 05:55:07;;;;;;;70.32;30.80;;;;;;;;;;5053892;28;20060;-77
2022/12/29 05:57:32;;;;;;;71.70;31.20;;;;;;;;;;5052373;28;20072;-77
2022/12/29 05:59:58;;;;;;;75.35;33.45;;;;;;;;;;5052519;28;20033;-77
2022/12/29 06:02:23;;;;;;;75.55;33.38;;;;;;;;;;5053542;28;20041;-78
2022/12/29 06:04:48;;;;;;;79.97;36.25;;;;;;;;;;5035748;28;20124;-77
2022/12/29 06:07:14;;;;;;;74.82;33.60;;;;;;;;;;5053453;28;20037;-78
2022/12/29 06:09:39;;;;;;;70.32;32.67;;;;;;;;;;5052464;28;20033;-78
2022/12/29 06:12:05;;;;;;;79.53;32.67;;;;;;;;;;5053359;28;20036;-78
2022/12/29 06:14:30;;;;;;;76.60;33.00;;;;;;;;;;5056353;28;20082;-78
2022/12/29 06:16:56;;;;;;;81.68;34.40;;;;;;;;;;5040567;28;20422;-77
2022/12/29 06:19:21;;;;;;;77.53;33.90;;;;;;;;;;5057629;28;20024;-77
2022/12/29 06:21:47;;;;;;;86.97;37.83;;;;;;;;;;5057347;28;20064;-78
2022/12/29 06:24:12;;;;;;;94.78;39.70;;;;;;;;;;5057263;28;20025;-77
2022/12/29 06:26:38;;;;;;;82.85;37.10;;;;;;;;;;5039653;28;20032;-77
2022/12/29 06:29:04;;;;;;;92.68;39.60;;;;;;;;;;5057262;28;20033;-78
2022/12/29 06:31:29;;;;;;;94.05;42.22;;;;;;;;;;5057349;28;20045;-77
2022/12/29 06:33:55;;;;;;;93.63;42.47;;;;;;;;;;5038231;28;20361;-78
2022/12/29 06:36:20;;;;;;;96.30;45.55;;;;;;;;;;5038963;28;20033;-77
2022/12/29 06:38:46;;;;;;;89.78;42.05;;;;;;;;;;5057109;28;20033;-78
2022/12/29 06:41:11;;;;;;;96.32;41.42;;;;;;;;;;5056982;28;20083;-78
2022/12/29 06:43:37;;;;;;;83.75;39.10;;;;;;;;;;5057249;28;20092;-77
2022/12/29 06:46:04;;;;;;;104.25;44.15;;;;;;;;;;5057126;28;20036;-77
2022/12/29 06:48:30;;;;;;;131.25;56.72;;;;;;;;;;5056793;28;20454;-77
2022/12/29 06:50:55;;;;;;;142.13;58.20;;;;;;;;;;5056628;28;20029;-78
2022/12/29 06:53:21;;;;;;;122.80;49.55;;;;;;;;;;5055773;28;20292;-77
2022/12/29 06:55:46;;;;;;;114.70;46.22;;;;;;;;;;5039096;28;20098;-77
2022/12/29 06:58:11;;;;;;;101.75;43.40;;;;;;;;;;5056601;28;20108;-77
2022/12/29 07:00:39;;;;;;;90.40;40.78;;;;;;;;;;5055488;28;20025;-78
2022/12/29 07:03:04;;;;;;;90.70;41.55;;;;;;;;;;5056412;28;20033;-78
2022/12/29 07:05:32;;;;;;;81.07;33.97;;;;;;;;;;5054989;28;20083;-77
2022/12/29 07:07:57;;;;;;;74.82;36.83;;;;;;;;;;5038854;28;20040;-77
2022/12/29 07:10:23;;;;;;;96.55;39.95;;;;;;;;;;5056555;28;20029;-77
2022/12/29 07:12:48;;;;;;;119.20;52.90;;;;;;;;;;5038726;28;20098;-78
2022/12/29 07:15:14;;;;;;;102.82;47.47;;;;;;;;;;5038772;28;20132;-77
2022/12/29 07:17:39;;;;;;;109.07;50.20;;;;;;;;;;5038466;28;20122;-78
2022/12/29 07:20:06;;;;;;;98.35;45.25;;;;;;;;;;5038472;28;20056;-77
2022/12/29 07:22:31;;;;;;;85.25;35.63;;;;;;;;;;5056340;28;20052;-78
2022/12/29 07:24:57;;;;;;;81.63;37.75;;;;;;;;;;5053979;28;20036;-78
2022/12/29 07:27:23;;;;;;;102.70;47.70;;;;;;;;;;5038348;28;20120;-78
2022/12/29 07:29:49;;;;;;;84.15;41.15;;;;;;;;;;5056033;28;20075;-78
2022/12/29 07:32:14;;;;;;;79.68;35.63;;;;;;;;;;5038378;28;20116;-77
2022/12/29 07:34:40;;;;;;;81.43;36.60;;;;;;;;;;5038061;28;20035;-78
2022/12/29 07:37:05;;;;;;;82.25;38.53;;;;;;;;;;5038023;28;20031;-77
2022/12/29 07:39:31;;;;;;;83.32;36.17;;;;;;;;;;5055678;28;20025;-77
2022/12/29 07:41:56;;;;;;;93.68;41.28;;;;;;;;;;5055978;28;20029;-77
2022/12/29 07:44:22;;;;;;;105.60;42.88;;;;;;;;;;5056248;28;20365;-77
2022/12/29 07:46:47;;;;;;;93.40;42.63;;;;;;;;;;5055887;28;20021;-78
2022/12/29 07:49:12;;;;;;;112.70;45.60;;;;;;;;;;5056032;28;20047;-78
2022/12/29 07:51:38;;;;;;;99.55;42.72;;;;;;;;;;5055948;28;20370;-78
2022/12/29 07:54:03;;;;;;;103.25;43.78;;;;;;;;;;5055863;28;20098;-78
2022/12/29 07:56:29;;;;;;;100.95;44.55;;;;;;;;;;5038223;28;20032;-78
2022/12/29 07:58:54;;;;;;;180.07;75.25;;;;;;;;;;5038024;28;20036;-77
2022/12/29 08:01:21;;;;;;;122.30;49.90;;;;;;;;;;5037677;28;20028;-78
2022/12/29 08:03:46;;;;;;;214.00;101.95;;;;;;;;;;5055524;28;20036;-78
2022/12/29 08:06:12;;;;;;;120.63;51.08;;;;;;;;;;5055559;28;20037;-78
2022/12/29 08:08:37;;;;;;;148.02;60.85;;;;;;;;;;5054644;28;20037;-78
2022/12/29 08:11:03;;;;;;;106.07;45.05;;;;;;;;;;5055476;28;20339;-77
2022/12/29 08:13:29;;;;;;;102.38;41.05;;;;;;;;;;5055562;28;20033;-78
2022/12/29 08:15:54;;;;;;;99.10;42.22;;;;;;;;;;5055631;28;20115;-77
2022/12/29 08:18:20;;;;;;;89.40;39.08;;;;;;;;;;5053002;28;20072;-77
2022/12/29 08:20:45;;;;;;;75.90;33.17;;;;;;;;;;5038122;28;20119;-77
2022/12/29 08:23:11;;;;;;;71.63;30.33;;;;;;;;;;5037492;28;20036;-78
2022/12/29 08:25:36;;;;;;;75.50;30.35;;;;;;;;;;5037541;28;20033;-77
2022/12/29 08:28:01;;;;;;;75.68;32.58;;;;;;;;;;5056654;28;20025;-78
2022/12/29 08:30:27;;;;;;;80.85;31.70;;;;;;;;;;5057931;28;20120;-78
2022/12/29 08:32:52;;;;;;;63.17;28.45;;;;;;;;;;5042207;28;20028;-78
2022/12/29 08:35:18;;;;;;;69.55;30.92;;;;;;;;;;5025795;28;20431;-78
2022/12/29 08:37:43;;;;;;;68.50;30.55;;;;;;;;;;5036408;28;20112;-78
2022/12/29 08:40:09;;;;;;;65.10;28.65;;;;;;;;;;5055188;28;20456;-78
2022/12/29 08:42:34;;;;;;;63.38;28.80;;;;;;;;;;5037235;28;20350;-78
2022/12/29 08:45:00;;;;;;;59.75;25.50;;;;;;;;;;5053750;28;20082;-78
2022/12/29 08:47:26;;;;;;;56.53;24.80;;;;;;;;;;5055364;28;20090;-78
2022/12/29 08:49:52;;;;;;;55.50;25.35;;;;;;;;;;5053482;28;20025;-78
2022/12/29 08:52:17;;;;;;;50.53;23.55;;;;;;;;;;5037000;28;20036;-78
2022/12/29 08:54:43;;;;;;;51.28;24.08;;;;;;;;;;5020722;28;20102;-78
2022/12/29 08:57:08;;;;;;;59.92;25.55;;;;;;;;;;5054916;28;20040;-78
2022/12/29 08:59:33;;;;;;;52.47;23.77;;;;;;;;;;5054694;28;20036;-78
2022/12/29 09:02:00;;;;;;;117.32;56.20;;;;;;;;;;5054100;28;20028;-78
2022/12/29 09:04:26;;;;;;;148.75;70.30;;;;;;;;;;5054392;28;20029;-78
2022/12/29 09:06:52;;;;;;;59.65;26.83;;;;;;;;;;5054425;28;20025;-78
2022/12/29 09:09:18;;;;;;;59.75;25.65;;;;;;;;;;5054807;28;20032;-78
2022/12/29 09:11:43;;;;;;;54.40;27.50;;;;;;;;;;5052953;28;20024;-75
2022/12/29 09:14:09;;;;;;;61.63;28.70;;;;;;;;;;5036558;28;20135;-76
2022/12/29 09:16:34;;;;;;;55.97;27.55;;;;;;;;;;5036417;28;20064;-75
2022/12/29 09:19:00;;;;;;;56.60;27.48;;;;;;;;;;5036495;28;20071;-77
2022/12/29 09:21:25;;;;;;;54.60;28.35;;;;;;;;;;5053214;28;20029;-76
2022/12/29 09:23:51;;;;;;;57.25;28.25;;;;;;;;;;5036121;28;20389;-78
2022/12/29 09:26:18;;;;;;;61.38;27.58;;;;;;;;;;5053866;28;20068;-77
2022/12/29 09:28:44;;;;;;;70.55;32.30;;;;;;;;;;5051279;28;20143;-77
2022/12/29 09:31:10;;;;;;;61.60;28.58;;;;;;;;;;5052960;28;20039;-78
2022/12/29 09:33:35;;;;;;;64.00;28.83;;;;;;;;;;5053021;28;20461;-77
2022/12/29 09:36:01;;;;;;;44.00;21.98;;;;;;;;;;5054244;28;20101;-78
2022/12/29 09:38:26;;;;;;;41.25;20.55;;;;;;;;;;5053177;28;20036;-77
2022/12/29 09:40:59;;;;;;;42.88;20.30;;;;;;;;;;5035853;28;20029;-78
2022/12/29 09:43:38;;;;;;;39.75;19.58;;;;;;;;;;5037948;28;20404;-77
2022/12/29 09:46:22;;;;;;;38.95;20.27;;;;;;;;;;5037454;28;20033;-77
2022/12/29 09:48:50;;;;;;;50.03;24.77;;;;;;;;;;5053122;28;20025;-77
2022/12/29 09:51:18;;;;;;;50.97;26.65;;;;;;;;;;5036022;28;20033;-77
2022/12/29 09:53:58;;;;;;;53.78;28.10;;;;;;;;;;5036441;28;20039;-77
2022/12/29 09:56:24;;;;;;;54.92;27.35;;;;;;;;;;5052581;28;20036;-77
2022/12/29 09:59:00;;;;;;;59.95;29.90;;;;;;;;;;5052479;28;20041;-76
2022/12/29 10:01:51;;;;;;;56.50;29.88;;;;;;;;;;5036090;28;20098;-76
2022/12/29 10:04:16;;;;;;;54.88;28.58;;;;;;;;;;5038589;28;20079;-76
2022/12/29 10:06:53;;;;;;;55.15;29.58;;;;;;;;;;5036131;28;20029;-77
2022/12/29 10:09:36;;;;;;;60.25;31.15;;;;;;;;;;5035874;28;20457;-77
2022/12/29 10:12:24;;;;;;;60.45;30.35;;;;;;;;;;5019885;28;20060;-77
2022/12/29 10:15:16;;;;;;;61.90;31.40;;;;;;;;;;5035848;28;20039;-77
2022/12/29 10:17:45;;;;;;;58.80;29.67;;;;;;;;;;5038702;28;20440;-78
2022/12/29 10:20:10;;;;;;;62.20;30.02;;;;;;;;;;5035962;28;20040;-77
2022/12/29 10:23:01;;;;;;;57.42;30.10;;;;;;;;;;5053519;28;20033;-77
2022/12/29 10:25:28;;;;;;;60.75;30.30;;;;;;;;;;5036734;28;20475;-77
2022/12/29 10:27:55;;;;;;;64.95;32.47;;;;;;;;;;5035836;28;20128;-77
2022/12/29 10:30:21;;;;;;;60.40;29.83;;;;;;;;;;5036764;28;20037;-77
2022/12/29 10:32:56;;;;;;;61.40;30.30;;;;;;;;;;4999354;28;20025;-77
2022/12/29 10:35:26;;;;;;;57.47;30.23;;;;;;;;;;5015631;28;20368;-78
2022/12/29 10:38:10;;;;;;;60.42;31.52;;;;;;;;;;5033426;28;20026;-78
2022/12/29 10:40:43;;;;;;;65.93;33.17;;;;;;;;;;5033309;28;20451;-78
2022/12/29 10:43:27;;;;;;;60.00;30.30;;;;;;;;;;5015572;28;20060;-77
2022/12/29 10:45:54;;;;;;;56.75;29.25;;;;;;;;;;5016115;28;20029;-77
2022/12/29 10:48:22;;;;;;;59.00;28.35;;;;;;;;;;5016034;28;20459;-76
2022/12/29 10:50:49;;;;;;;53.47;28.27;;;;;;;;;;5015940;28;20132;-78
2022/12/29 10:53:20;;;;;;;49.72;27.20;;;;;;;;;;5015864;28;20036;-77
2022/12/29 10:55:46;;;;;;;51.97;26.70;;;;;;;;;;5015893;28;20068;-77
2022/12/29 10:58:12;;;;;;;62.05;28.10;;;;;;;;;;5032316;28;20025;-77
2022/12/29 11:00:37;;;;;;;55.58;26.60;;;;;;;;;;5018114;28;20037;-77
2022/12/29 11:03:51;;;;;;;55.38;27.60;;;;;;;;;;5019078;28;20040;-77
2022/12/29 11:06:27;;;;;;;53.20;27.15;;;;;;;;;;5025176;28;20068;-77
2022/12/29 11:09:27;;;;;;;53.13;28.02;;;;;;;;;;5031833;28;20060;-77
2022/12/29 11:11:53;;;;;;;53.00;27.10;;;;;;;;;;5015097;28;20056;-78
2022/12/29 11:14:21;;;;;;;53.72;27.83;;;;;;;;;;5037474;28;20029;-79
2022/12/29 11:17:00;;;;;;;60.95;29.83;;;;;;;;;;5018896;28;20418;-79
2022/12/29 11:19:28;;;;;;;53.88;27.00;;;;;;;;;;5035360;28;20026;-78
2022/12/29 11:21:53;;;;;;;54.97;25.15;;;;;;;;;;5036574;28;20044;-76
2022/12/29 11:24:28;;;;;;;64.05;31.95;;;;;;;;;;5018489;28;20029;-78
2022/12/29 11:27:19;;;;;;;47.05;25.88;;;;;;;;;;5002265;28;20483;-76
2022/12/29 11:29:44;;;;;;;;;;;;;;;;;;5052233;28;20045;-78
2022/12/29 11:32:18;;;;;;;56.88;26.75;;;;;;;;;;5036341;28;19913;-77
2022/12/29 11:34:44;;;;;;;51.25;26.88;;;;;;;;;;5052747;28;20029;-76
2022/12/29 11:37:14;;;;;;;57.13;28.58;;;;;;;;;;5035971;28;20068;-77
2022/12/29 11:39:51;;;;;;;60.70;28.25;;;;;;;;;;5038465;28;20025;-77
2022/12/29 11:42:22;;;;;;;60.72;29.63;;;;;;;;;;5047876;28;20171;-78
2022/12/29 11:44:48;;;;;;;;;;;;;;;;;;5041826;28;20029;-79
2022/12/29 11:47:22;;;;;;;65.40;31.90;;;;;;;;;;5019002;28;19909;-77
2022/12/29 11:49:55;;;;;;;69.05;31.55;;;;;;;;;;5018406;28;20033;-77
2022/12/29 11:52:25;;;;;;;64.30;30.35;;;;;;;;;;5034911;28;20053;-77
2022/12/29 11:54:51;;;;;;;58.10;29.67;;;;;;;;;;5002117;28;20060;-77
2022/12/29 11:57:18;;;;;;;61.50;31.45;;;;;;;;;;5036308;28;20029;-77
2022/12/29 11:59:55;;;;;;;68.82;32.33;;;;;;;;;;5018805;28;20029;-78
2022/12/29 12:02:22;;;;;;;71.68;34.28;;;;;;;;;;5019619;28;20137;-78
2022/12/29 12:04:49;;;;;;;76.70;39.92;;;;;;;;;;5017965;28;20080;-78
2022/12/29 12:07:30;;;;;;;72.05;36.20;;;;;;;;;;5034422;28;20125;-77
2022/12/29 12:10:00;;;;;;;74.22;35.13;;;;;;;;;;5034534;28;20041;-77
2022/12/29 12:12:35;;;;;;;73.72;34.28;;;;;;;;;;5017466;28;20034;-77
2022/12/29 12:15:01;;;;;;;64.45;32.03;;;;;;;;;;5017932;28;20120;-77
2022/12/29 12:17:40;;;;;;;64.90;32.70;;;;;;;;;;5034118;28;20449;-77
2022/12/29 12:20:44;;;;;;;61.90;29.65;;;;;;;;;;5050865;28;20545;-77
2022/12/29 12:23:25;;;;;;;68.30;31.75;;;;;;;;;;5033068;28;20053;-77
2022/12/29 12:26:02;;;;;;;76.70;33.75;;;;;;;;;;5035436;28;20033;-77
2022/12/29 12:28:51;;;;;;;62.03;32.35;;;;;;;;;;5017893;28;20056;-77
2022/12/29 12:31:21;;;;;;;59.53;30.23;;;;;;;;;;5000844;28;20033;-76
2022/12/29 12:33:49;;;;;;;63.10;31.02;;;;;;;;;;5034139;28;20059;-77
2022/12/29 12:36:46;;;;;;;57.78;30.98;;;;;;;;;;5034014;28;20036;-77
2022/12/29 12:39:23;;;;;;;65.05;32.08;;;;;;;;;;5033555;28;20030;-76
2022/12/29 12:42:05;;;;;;;56.90;28.90;;;;;;;;;;5035128;28;20120;-78
2022/12/29 12:45:01;;;;;;;50.78;26.65;;;;;;;;;;5035196;28;20104;-77
2022/12/29 12:47:26;;;;;;;56.13;26.33;;;;;;;;;;5035010;28;20037;-77
2022/12/29 12:50:05;;;;;;;56.42;25.63;;;;;;;;;;5034770;28;20419;-77
2022/12/29 12:52:56;;;;;;;51.80;26.45;;;;;;;;;;5034630;28;20119;-77
2022/12/29 12:55:50;;;;;;;46.75;23.95;;;;;;;;;;5006241;28;20041;-76
2022/12/29 12:58:18;;;;;;;45.90;24.45;;;;;;;;;;5033671;28;20378;-77
2022/12/29 13:00:50;;;;;;;45.83;23.40;;;;;;;;;;5034606;28;20033;-78
2022/12/29 13:03:51;;;;;;;44.42;23.10;;;;;;;;;;5017231;28;20045;-76
2022/12/29 13:06:31;;;;;;;51.42;25.58;;;;;;;;;;4983157;28;20116;-76
2022/12/29 13:09:31;;;;;;;52.03;25.33;;;;;;;;;;5034632;28;20120;-76
2022/12/29 13:12:12;;;;;;;53.55;26.27;;;;;;;;;;5008718;28;20076;-78
2022/12/29 13:14:43;;;;;;;49.65;26.23;;;;;;;;;;5034318;28;20040;-78
2022/12/29 13:17:32;;;;;;;51.50;26.48;;;;;;;;;;5034464;28;20160;-78
2022/12/29 13:20:24;;;;;;;60.00;26.25;;;;;;;;;;5012263;28;20045;-78
2022/12/29 13:23:10;;;;;;;55.97;26.38;;;;;;;;;;5030176;28;20037;-78
2022/12/29 13:25:45;;;;;;;58.85;27.02;;;;;;;;;;5017686;28;20077;-78
2022/12/29 13:28:30;;;;;;;59.05;26.85;;;;;;;;;;5016387;28;20029;-79
2022/12/29 13:31:04;;;;;;;56.65;27.85;;;;;;;;;;5038359;28;20077;-78
2022/12/29 13:33:57;;;;;;;61.58;27.77;;;;;;;;;;5036951;28;20098;-78
2022/12/29 13:36:28;;;;;;;58.38;25.77;;;;;;;;;;5053715;28;20138;-77
2022/12/29 13:39:05;;;;;;;56.53;26.88;;;;;;;;;;5036467;28;20131;-78
2022/12/29 13:41:34;;;;;;;63.78;29.10;;;;;;;;;;5038059;28;20039;-78
2022/12/29 13:44:00;;;;;;;58.88;27.58;;;;;;;;;;5059242;28;20041;-78
2022/12/29 13:46:40;;;;;;;66.82;29.00;;;;;;;;;;5057908;28;20182;-78
2022/12/29 13:49:21;;;;;;;65.53;27.60;;;;;;;;;;5038613;28;20033;-78
2022/12/29 13:51:51;;;;;;;72.93;29.73;;;;;;;;;;5053805;28;20369;-78
2022/12/29 13:54:41;;;;;;;62.97;27.00;;;;;;;;;;5036279;28;20028;-78
2022/12/29 13:57:36;;;;;;;60.15;28.17;;;;;;;;;;5053958;28;20347;-78
2022/12/29 14:00:12;;;;;;;91.50;35.63;;;;;;;;;;5038690;28;20361;-78
2022/12/29 14:03:05;;;;;;;97.22;40.13;;;;;;;;;;5036107;28;20056;-78
2022/12/29 14:05:31;;;;;;;70.10;30.20;;;;;;;;;;5053349;28;20374;-78
2022/12/29 14:08:04;;;;;;;66.45;30.38;;;;;;;;;;5052457;28;20036;-78
2022/12/29 14:10:35;;;;;;;62.80;30.85;;;;;;;;;;5052464;28;20427;-78
2022/12/29 14:13:15;;;;;;;65.90;30.05;;;;;;;;;;5036491;28;20453;-78
2022/12/29 14:15:43;;;;;;;62.17;28.87;;;;;;;;;;5019471;28;20127;-78
2022/12/29 14:18:28;;;;;;;70.43;31.88;;;;;;;;;;5052382;28;20489;-77
2022/12/29 14:21:00;;;;;;;67.28;32.13;;;;;;;;;;5052279;28;20120;-77
2022/12/29 14:23:43;;;;;;;63.70;30.33;;;;;;;;;;5036161;28;20041;-78
2022/12/29 14:26:17;;;;;;;63.25;30.77;;;;;;;;;;5036282;28;20482;-77
2022/12/29 14:28:46;;;;;;;72.55;31.83;;;;;;;;;;5052600;28;20029;-78
2022/12/29 14:31:14;;;;;;;79.63;33.90;;;;;;;;;;5055065;28;20036;-77
2022/12/29 14:33:40;;;;;;;72.60;33.78;;;;;;;;;;5061785;28;20067;-78
2022/12/29 14:36:26;;;;;;;60.67;28.83;;;;;;;;;;5065882;28;20037;-77
2022/12/29 14:38:52;;;;;;;72.30;32.40;;;;;;;;;;5040149;28;20033;-78
2022/12/29 14:41:18;;;;;;;71.78;32.60;;;;;;;;;;5022949;28;20036;-78
2022/12/29 14:43:55;;;;;;;69.53;30.98;;;;;;;;;;5039359;28;20039;-78
2022/12/29 14:46:21;;;;;;;69.07;30.83;;;;;;;;;;5039576;28;20048;-77
2022/12/29 14:48:46;;;;;;;65.25;32.15;;;;;;;;;;5039179;28;20021;-78
2022/12/29 14:51:20;;;;;;;94.18;38.85;;;;;;;;;;5039391;28;20126;-77
2022/12/29 14:53:51;;;;;;;80.63;36.20;;;;;;;;;;5055781;28;20114;-78
2022/12/29 14:56:17;;;;;;;61.67;30.60;;;;;;;;;;5057071;28;20017;-78
2022/12/29 14:59:09;;;;;;;67.75;31.33;;;;;;;;;;5056264;28;20412;-78
2022/12/29 15:01:51;;;;;;;71.53;31.48;;;;;;;;;;5037257;28;20041;-78
2022/12/29 15:04:19;;;;;;;67.60;31.02;;;;;;;;;;5042961;28;20480;-78
2022/12/29 15:06:45;;;;;;;70.25;30.70;;;;;;;;;;5064898;28;20029;-78
2022/12/29 15:09:29;;;;;;;83.63;33.28;;;;;;;;;;5045364;28;20094;-78
2022/12/29 15:12:01;;;;;;;101.00;42.35;;;;;;;;;;5057657;28;20127;-78